createdAt,value
2023-03-22T00:00:20.098Z,1.13
2023-03-22T00:01:20.058Z,1.49
2023-03-22T00:02:20.053Z,0.82
2023-03-22T00:03:20.018Z,1.42
2023-03-22T00:04:19.879Z,1.03
2023-03-22T00:05:19.837Z,0.68
2023-03-22T00:06:19.884Z,1.21
2023-03-22T00:07:19.740Z,1.15
2023-03-22T00:08:19.676Z,0.97
2023-03-22T00:09:19.621Z,1.09
2023-03-22T00:10:19.610Z,1.00
2023-03-22T00:11:19.550Z,0.99
2023-03-22T00:12:19.470Z,0.70
2023-03-22T00:13:19.430Z,0.99
2023-03-22T00:14:19.405Z,1.03
2023-03-22T00:15:19.341Z,1.18
2023-03-22T00:16:19.374Z,0.97
2023-03-22T00:17:19.253Z,1.28
2023-03-22T00:18:19.186Z,0.97
2023-03-22T00:19:19.137Z,1.05
2023-03-22T00:20:20.707Z,0.91
2023-03-22T00:21:19.033Z,0.96
2023-03-22T00:22:18.988Z,0.84
2023-03-22T00:23:18.922Z,0.99
2023-03-22T00:24:18.869Z,1.13
2023-03-22T00:25:18.813Z,1.01
2023-03-22T00:26:18.806Z,1.15
2023-03-22T00:27:18.714Z,1.04
2023-03-22T00:28:18.662Z,0.84
2023-03-22T00:29:18.620Z,0.96
2023-03-22T00:30:18.560Z,1.19
2023-03-22T00:31:18.546Z,1.09
2023-03-22T00:32:18.477Z,0.74
2023-03-22T00:33:18.411Z,1.39
2023-03-22T00:34:18.350Z,1.06
2023-03-22T00:35:18.352Z,1.06
2023-03-22T00:36:18.252Z,1.29
2023-03-22T00:37:18.205Z,1.17
2023-03-22T00:38:18.168Z,0.89
2023-03-22T00:39:18.111Z,1.00
2023-03-22T00:40:18.455Z,0.88
2023-03-22T00:41:18.033Z,1.01
2023-03-22T00:42:17.970Z,1.19
2023-03-22T00:43:17.926Z,0.63
2023-03-22T00:44:17.901Z,0.97
2023-03-22T00:45:17.825Z,1.00
2023-03-22T00:46:17.834Z,1.41
2023-03-22T00:47:17.745Z,0.96
2023-03-22T00:48:17.711Z,1.09
2023-03-22T00:49:17.660Z,0.77
2023-03-22T00:50:17.606Z,0.92
2023-03-22T00:51:17.564Z,1.17
2023-03-22T00:52:17.504Z,1.08
2023-03-22T00:53:17.455Z,0.81
2023-03-22T00:54:17.419Z,1.12
2023-03-22T00:55:17.383Z,1.25
2023-03-22T00:56:17.329Z,1.11
2023-03-22T00:57:17.266Z,0.81
2023-03-22T00:58:17.210Z,0.98
2023-03-22T00:59:17.167Z,1.03
2023-03-22T01:00:17.128Z,0.77
2023-03-22T01:01:17.114Z,0.97
2023-03-22T01:02:17.020Z,0.69
2023-03-22T01:03:17.019Z,1.02
2023-03-22T01:04:16.926Z,1.38
2023-03-22T01:05:16.872Z,0.86
2023-03-22T01:06:16.816Z,1.02
2023-03-22T01:07:16.780Z,1.05
2023-03-22T01:08:16.771Z,0.80
2023-03-22T01:09:16.668Z,1.11
2023-03-22T01:10:16.619Z,1.23
2023-03-22T01:11:16.579Z,0.75
2023-03-22T01:12:16.531Z,1.01
2023-03-22T01:13:17.972Z,0.92
2023-03-22T01:14:16.411Z,0.94
2023-03-22T01:15:16.358Z,0.93
2023-03-22T01:16:16.410Z,1.01
2023-03-22T01:17:16.261Z,0.76
2023-03-22T01:18:16.200Z,1.16
2023-03-22T01:19:16.143Z,1.05
2023-03-22T01:20:16.085Z,1.05
2023-03-22T01:21:16.039Z,0.90
2023-03-22T01:22:15.996Z,0.78
2023-03-22T01:23:15.935Z,0.94
2023-03-22T01:24:15.889Z,1.47
2023-03-22T01:25:15.815Z,0.81
2023-03-22T01:26:15.763Z,1.06
2023-03-22T01:27:15.714Z,1.04
2023-03-22T01:28:15.681Z,0.91
2023-03-22T01:29:15.609Z,0.91
2023-03-22T01:30:15.559Z,0.75
2023-03-22T01:31:15.608Z,0.81
2023-03-22T01:32:15.468Z,1.16
2023-03-22T01:33:15.408Z,1.15
2023-03-22T01:34:15.360Z,0.87
2023-03-22T01:35:15.310Z,1.12
2023-03-22T01:36:15.250Z,1.04
2023-03-22T01:37:15.203Z,0.88
2023-03-22T01:38:15.158Z,0.98
2023-03-22T01:39:15.104Z,0.80
2023-03-22T01:40:15.042Z,1.02
2023-03-22T01:41:14.989Z,1.05
2023-03-22T01:42:14.953Z,1.06
2023-03-22T01:43:14.903Z,0.83
2023-03-22T01:44:14.840Z,1.35
2023-03-22T01:45:14.803Z,1.10
2023-03-22T01:46:14.810Z,0.93
2023-03-22T01:47:14.677Z,1.06
2023-03-22T01:48:14.669Z,1.01
2023-03-22T01:49:14.595Z,0.84
2023-03-22T01:50:14.511Z,0.88
2023-03-22T01:51:14.465Z,0.88
2023-03-22T01:52:14.400Z,0.81
2023-03-22T01:53:14.352Z,1.05
2023-03-22T01:54:14.279Z,0.81
2023-03-22T01:55:14.242Z,1.12
2023-03-22T01:56:14.190Z,0.57
2023-03-22T01:57:14.154Z,0.60
2023-03-22T01:58:14.080Z,1.16
2023-03-22T01:59:14.046Z,0.99
2023-03-22T02:00:13.974Z,0.89
2023-03-22T02:01:13.961Z,1.14
2023-03-22T02:02:13.896Z,0.77
2023-03-22T02:03:13.845Z,0.89
2023-03-22T02:04:13.799Z,0.89
2023-03-22T02:05:13.737Z,1.00
2023-03-22T02:06:13.680Z,1.05
2023-03-22T02:07:13.631Z,0.87
2023-03-22T02:08:13.585Z,0.82
2023-03-22T02:09:13.533Z,1.25
2023-03-22T02:10:13.468Z,1.03
2023-03-22T02:11:13.421Z,0.77
2023-03-22T02:12:13.393Z,0.84
2023-03-22T02:13:13.371Z,1.00
2023-03-22T02:14:13.263Z,0.95
2023-03-22T02:15:13.195Z,0.84
2023-03-22T02:16:13.221Z,0.95
2023-03-22T02:17:13.097Z,0.72
2023-03-22T02:18:13.039Z,0.94
2023-03-22T02:19:12.981Z,0.83
2023-03-22T02:20:12.912Z,1.13
2023-03-22T02:21:12.855Z,0.83
2023-03-22T02:22:12.793Z,0.93
2023-03-22T02:23:12.758Z,0.97
2023-03-22T02:24:12.692Z,0.84
2023-03-22T02:25:12.637Z,0.89
2023-03-22T02:26:12.570Z,0.93
2023-03-22T02:27:12.515Z,0.85
2023-03-22T02:28:12.474Z,0.94
2023-03-22T02:29:12.425Z,1.01
2023-03-22T02:30:12.370Z,0.84
2023-03-22T02:31:12.404Z,1.03
2023-03-22T02:32:12.250Z,0.94
2023-03-22T02:33:12.212Z,0.98
2023-03-22T02:34:12.190Z,1.14
2023-03-22T02:35:12.077Z,1.07
2023-03-22T02:36:12.023Z,1.29
2023-03-22T02:37:11.960Z,0.55
2023-03-22T02:38:11.905Z,0.91
2023-03-22T02:39:11.869Z,0.68
2023-03-22T02:40:11.795Z,1.08
2023-03-22T02:41:11.742Z,0.88
2023-03-22T02:42:11.677Z,0.78
2023-03-22T02:43:11.625Z,1.07
2023-03-22T02:44:11.564Z,0.69
2023-03-22T02:45:11.498Z,0.89
2023-03-22T02:46:11.525Z,0.97
2023-03-22T02:47:11.384Z,1.23
2023-03-22T02:48:11.374Z,0.84
2023-03-22T02:49:11.288Z,0.93
2023-03-22T02:50:11.264Z,0.87
2023-03-22T02:51:11.183Z,1.18
2023-03-22T02:52:11.131Z,1.04
2023-03-22T02:53:11.088Z,0.83
2023-03-22T02:54:11.050Z,1.39
2023-03-22T02:55:10.993Z,0.95
2023-03-22T02:56:10.933Z,0.79
2023-03-22T02:57:10.888Z,0.76
2023-03-22T02:58:10.831Z,0.55
2023-03-22T02:59:10.787Z,1.02
2023-03-22T03:00:10.739Z,0.74
2023-03-22T03:01:10.723Z,0.91
2023-03-22T03:02:10.671Z,0.73
2023-03-22T03:03:10.581Z,0.75
2023-03-22T03:04:10.537Z,1.14
2023-03-22T03:05:10.493Z,0.82
2023-03-22T03:06:10.453Z,1.00
2023-03-22T03:07:10.386Z,0.93
2023-03-22T03:08:10.348Z,0.83
2023-03-22T03:09:10.332Z,0.75
2023-03-22T03:10:10.234Z,0.81
2023-03-22T03:11:10.194Z,0.62
2023-03-22T03:12:10.140Z,1.06
2023-03-22T03:13:10.105Z,0.87
2023-03-22T03:14:10.045Z,0.84
2023-03-22T03:15:10.000Z,0.81
2023-03-22T03:16:09.967Z,0.58
2023-03-22T03:17:09.902Z,0.86
2023-03-22T03:18:09.884Z,0.96
2023-03-22T03:19:09.820Z,0.92
2023-03-22T03:20:09.784Z,0.74
2023-03-22T03:21:09.746Z,0.51
2023-03-22T03:22:09.698Z,0.76
2023-03-22T03:23:09.659Z,0.77
2023-03-22T03:24:09.598Z,0.67
2023-03-22T03:25:09.578Z,0.97
2023-03-22T03:26:09.511Z,0.83
2023-03-22T03:27:09.494Z,0.69
2023-03-22T03:28:09.440Z,0.76
2023-03-22T03:29:09.393Z,0.67
2023-03-22T03:30:09.371Z,0.93
2023-03-22T03:31:09.310Z,0.87
2023-03-22T03:32:09.288Z,1.05
2023-03-22T03:33:09.270Z,0.60
2023-03-22T03:34:09.179Z,0.88
2023-03-22T03:35:09.140Z,0.83
2023-03-22T03:36:09.095Z,0.98
2023-03-22T03:37:09.041Z,0.96
2023-03-22T03:38:08.996Z,1.05
2023-03-22T03:39:08.945Z,0.57
2023-03-22T03:40:08.915Z,1.05
2023-03-22T03:41:08.853Z,1.03
2023-03-22T03:42:08.828Z,0.94
2023-03-22T03:43:08.755Z,1.15
2023-03-22T03:44:08.710Z,0.72
2023-03-22T03:45:08.671Z,0.69
2023-03-22T03:46:08.678Z,0.74
2023-03-22T03:47:08.582Z,0.95
2023-03-22T03:48:08.597Z,0.93
2023-03-22T03:49:08.509Z,0.79
2023-03-22T03:50:08.477Z,0.69
2023-03-22T03:51:08.411Z,0.93
2023-03-22T03:52:08.378Z,0.82
2023-03-22T03:53:08.329Z,1.30
2023-03-22T03:54:08.295Z,0.54
2023-03-22T03:55:08.251Z,0.66
2023-03-22T03:56:08.214Z,0.50
2023-03-22T03:57:08.172Z,0.73
2023-03-22T03:58:08.136Z,0.68
2023-03-22T03:59:08.101Z,0.80
2023-03-22T04:00:08.078Z,1.13
2023-03-22T04:01:08.022Z,0.76
2023-03-22T04:02:08.037Z,0.70
2023-03-22T04:03:07.943Z,1.04
2023-03-22T04:04:07.977Z,0.70
2023-03-22T04:05:07.886Z,0.64
2023-03-22T04:06:07.837Z,0.66
2023-03-22T04:07:07.794Z,0.83
2023-03-22T04:08:07.761Z,0.71
2023-03-22T04:09:07.711Z,1.03
2023-03-22T04:10:07.677Z,0.69
2023-03-22T04:11:07.645Z,0.71
2023-03-22T04:12:07.588Z,0.70
2023-03-22T04:13:07.549Z,0.67
2023-03-22T04:14:07.511Z,0.69
2023-03-22T04:15:07.465Z,0.69
2023-03-22T04:16:07.430Z,0.63
2023-03-22T04:17:07.367Z,0.69
2023-03-22T04:18:07.353Z,0.94
2023-03-22T04:19:07.305Z,0.62
2023-03-22T04:20:07.269Z,0.70
2023-03-22T04:21:07.224Z,0.67
2023-03-22T04:22:07.181Z,0.58
2023-03-22T04:23:07.146Z,1.10
2023-03-22T04:24:07.109Z,0.91
2023-03-22T04:25:07.074Z,1.28
2023-03-22T04:26:07.061Z,0.80
2023-03-22T04:27:07.003Z,0.76
2023-03-22T04:28:06.971Z,0.85
2023-03-22T04:29:06.931Z,0.79
2023-03-22T04:30:06.891Z,0.64
2023-03-22T04:31:06.922Z,0.84
2023-03-22T04:32:06.812Z,1.13
2023-03-22T04:33:06.799Z,1.15
2023-03-22T04:34:06.754Z,1.34
2023-03-22T04:35:06.686Z,1.58
2023-03-22T04:36:06.647Z,1.33
2023-03-22T04:37:06.590Z,1.37
2023-03-22T04:38:06.556Z,0.97
2023-03-22T04:39:06.502Z,1.40
2023-03-22T04:40:06.463Z,1.33
2023-03-22T04:41:06.443Z,1.10
2023-03-22T04:42:06.385Z,0.98
2023-03-22T04:43:06.328Z,1.17
2023-03-22T04:44:06.293Z,0.95
2023-03-22T04:45:06.248Z,1.21
2023-03-22T04:46:06.238Z,1.17
2023-03-22T04:47:06.175Z,1.46
2023-03-22T04:48:06.163Z,0.95
2023-03-22T04:49:06.094Z,1.10
2023-03-22T04:50:06.059Z,1.16
2023-03-22T04:51:06.046Z,1.31
2023-03-22T04:52:05.988Z,1.05
2023-03-22T04:53:05.946Z,1.13
2023-03-22T04:54:05.894Z,0.93
2023-03-22T04:55:05.868Z,1.36
2023-03-22T04:56:05.824Z,0.79
2023-03-22T04:57:05.765Z,0.84
2023-03-22T04:58:05.736Z,0.66
2023-03-22T04:59:05.689Z,0.95
2023-03-22T05:00:05.641Z,1.10
2023-03-22T05:01:05.610Z,1.57
2023-03-22T05:02:05.564Z,1.23
2023-03-22T05:03:05.572Z,0.91
2023-03-22T05:04:05.484Z,1.22
2023-03-22T05:05:05.431Z,1.28
2023-03-22T05:06:05.407Z,1.07
2023-03-22T05:07:05.366Z,0.75
2023-03-22T05:08:05.317Z,1.27
2023-03-22T05:09:05.272Z,0.95
2023-03-22T05:10:05.230Z,1.19
2023-03-22T05:11:05.174Z,0.96
2023-03-22T05:12:05.137Z,0.90
2023-03-22T05:13:05.089Z,1.09
2023-03-22T05:14:05.093Z,0.99
2023-03-22T05:15:05.003Z,0.82
2023-03-22T05:16:04.986Z,1.01
2023-03-22T05:17:04.921Z,1.05
2023-03-22T05:18:04.887Z,0.77
2023-03-22T05:19:04.838Z,0.77
2023-03-22T05:20:04.804Z,1.20
2023-03-22T05:21:04.749Z,0.94
2023-03-22T05:22:04.726Z,1.05
2023-03-22T05:23:04.670Z,1.34
2023-03-22T05:24:04.631Z,0.89
2023-03-22T05:25:04.586Z,0.91
2023-03-22T05:26:04.575Z,1.21
2023-03-22T05:27:04.514Z,0.96
2023-03-22T05:28:04.474Z,0.92
2023-03-22T05:29:04.425Z,1.36
2023-03-22T05:30:04.402Z,0.88
2023-03-22T05:31:04.355Z,1.01
2023-03-22T05:32:04.314Z,0.75
2023-03-22T05:33:04.262Z,1.08
2023-03-22T05:34:04.250Z,0.99
2023-03-22T05:35:04.181Z,0.73
2023-03-22T05:36:04.143Z,0.94
2023-03-22T05:37:04.097Z,1.14
2023-03-22T05:38:04.040Z,1.13
2023-03-22T05:39:04.003Z,1.16
2023-03-22T05:40:03.970Z,1.11
2023-03-22T05:41:03.939Z,1.19
2023-03-22T05:42:03.881Z,1.22
2023-03-22T05:43:03.821Z,1.29
2023-03-22T05:44:03.787Z,1.30
2023-03-22T05:45:03.744Z,1.13
2023-03-22T05:46:03.696Z,1.28
2023-03-22T05:47:03.696Z,1.21
2023-03-22T05:48:03.684Z,1.17
2023-03-22T05:49:03.617Z,1.50
2023-03-22T05:50:03.507Z,1.18
2023-03-22T05:51:03.470Z,1.61
2023-03-22T05:52:03.419Z,2.30
2023-03-22T05:53:03.367Z,2.25
2023-03-22T05:54:03.324Z,3.59
2023-03-22T05:55:03.280Z,3.48
2023-03-22T05:56:03.238Z,3.58
2023-03-22T05:57:03.196Z,6.58
2023-03-22T05:58:03.143Z,9.21
2023-03-22T05:59:03.115Z,8.03
2023-03-22T06:00:03.060Z,7.58
2023-03-22T06:01:03.014Z,6.45
2023-03-22T06:02:02.996Z,6.25
2023-03-22T06:03:02.972Z,5.03
2023-03-22T06:04:02.915Z,4.63
2023-03-22T06:05:02.869Z,4.48
2023-03-22T06:06:02.846Z,3.85
2023-03-22T06:07:02.852Z,4.37
2023-03-22T06:08:02.769Z,4.44
2023-03-22T06:09:16.053Z,4.33
2023-03-22T06:10:03.690Z,3.93
2023-03-22T06:11:02.656Z,4.64
2023-03-22T06:12:02.613Z,3.95
2023-03-22T06:13:02.618Z,3.87
2023-03-22T06:14:02.596Z,3.82
2023-03-22T06:15:02.546Z,3.38
2023-03-22T06:16:02.659Z,3.71
2023-03-22T06:17:02.416Z,3.86
2023-03-22T06:18:02.414Z,4.86
2023-03-22T06:19:02.336Z,4.40
2023-03-22T06:20:02.307Z,3.93
2023-03-22T06:21:02.258Z,5.31
2023-03-22T06:22:02.222Z,8.15
2023-03-22T06:23:02.183Z,10.06
2023-03-22T06:24:02.128Z,8.73
2023-03-22T06:25:02.099Z,7.82
2023-03-22T06:26:02.054Z,6.22
2023-03-22T06:27:02.036Z,6.32
2023-03-22T06:28:01.998Z,6.26
2023-03-22T06:29:01.958Z,6.47
2023-03-22T06:30:01.916Z,7.44
2023-03-22T06:31:01.925Z,6.85
2023-03-22T06:32:01.834Z,5.78
2023-03-22T06:33:01.827Z,6.38
2023-03-22T06:34:01.756Z,5.55
2023-03-22T06:35:01.721Z,7.07
2023-03-22T06:36:01.708Z,6.99
2023-03-22T06:37:01.662Z,6.44
2023-03-22T06:38:01.615Z,6.24
2023-03-22T06:39:01.581Z,6.26
2023-03-22T06:40:01.552Z,6.43
2023-03-22T06:41:01.500Z,6.87
2023-03-22T06:42:01.459Z,5.81
2023-03-22T06:43:05.142Z,5.85
2023-03-22T06:44:02.383Z,5.99
2023-03-22T06:45:01.339Z,6.25
2023-03-22T06:46:01.388Z,6.79
2023-03-22T06:47:01.263Z,6.04
2023-03-22T06:48:01.528Z,5.76
2023-03-22T06:49:01.252Z,6.00
2023-03-22T06:50:01.165Z,6.08
2023-03-22T06:51:01.107Z,6.95
2023-03-22T06:52:01.076Z,5.57
2023-03-22T06:53:01.040Z,6.55
2023-03-22T06:54:00.995Z,6.16
2023-03-22T06:55:00.948Z,5.91
2023-03-22T06:56:00.917Z,5.69
2023-03-22T06:57:00.867Z,6.01
2023-03-22T06:58:00.840Z,5.81
2023-03-22T06:59:00.783Z,4.96
2023-03-22T07:00:00.738Z,4.46
2023-03-22T07:01:00.771Z,5.05
2023-03-22T07:02:00.657Z,5.30
2023-03-22T07:03:00.636Z,4.60
2023-03-22T07:04:00.633Z,4.88
2023-03-22T07:05:00.573Z,4.57
2023-03-22T07:06:00.502Z,4.52
2023-03-22T07:07:00.447Z,4.02
2023-03-22T07:08:00.432Z,3.80
2023-03-22T07:09:00.356Z,4.13
2023-03-22T07:10:00.309Z,4.27
2023-03-22T07:11:00.282Z,3.33
2023-03-22T07:12:00.251Z,4.42
2023-03-22T07:13:00.192Z,3.12
2023-03-22T07:14:00.128Z,4.28
2023-03-22T07:15:00.122Z,3.62
2023-03-22T07:16:00.091Z,3.30
2023-03-22T07:17:00.015Z,3.52
2023-03-22T07:17:59.990Z,3.57
2023-03-22T07:18:59.959Z,3.45
2023-03-22T07:19:59.882Z,3.33
2023-03-22T07:20:59.833Z,4.09
2023-03-22T07:21:59.792Z,3.64
2023-03-22T07:22:59.704Z,4.41
2023-03-22T07:23:59.688Z,3.79
2023-03-22T07:25:01.656Z,4.26
2023-03-22T07:25:59.576Z,4.04
2023-03-22T07:26:59.533Z,3.73
2023-03-22T07:27:59.533Z,3.84
2023-03-22T07:28:59.457Z,3.80
2023-03-22T07:29:59.396Z,3.58
2023-03-22T07:30:59.338Z,3.20
2023-03-22T07:31:59.381Z,3.78
2023-03-22T07:32:59.251Z,3.39
2023-03-22T07:33:59.242Z,3.52
2023-03-22T07:34:59.176Z,3.43
2023-03-22T07:35:59.198Z,3.30
2023-03-22T07:36:59.184Z,4.20
2023-03-22T07:37:59.133Z,3.25
2023-03-22T07:38:59.098Z,2.97
2023-03-22T07:39:59.040Z,3.30
2023-03-22T07:41:58.999Z,3.67
2023-03-22T07:42:58.889Z,3.62
2023-03-22T07:44:58.861Z,3.32
2023-03-22T07:45:58.968Z,3.08
2023-03-22T07:46:58.710Z,3.19
2023-03-22T07:47:58.630Z,3.11
2023-03-22T07:48:58.582Z,3.29
2023-03-22T07:49:58.506Z,3.46
2023-03-22T07:50:58.461Z,2.79
2023-03-22T07:51:58.409Z,3.12
2023-03-22T07:52:58.363Z,2.99
2023-03-22T07:53:58.309Z,2.45
2023-03-22T07:54:58.262Z,2.53
2023-03-22T07:55:58.217Z,2.85
2023-03-22T07:56:58.178Z,2.58
2023-03-22T07:57:58.096Z,2.48
2023-03-22T07:58:58.061Z,2.36
2023-03-22T07:59:57.979Z,2.17
2023-03-22T08:00:57.933Z,2.32
2023-03-22T08:01:57.925Z,2.52
2023-03-22T08:02:57.852Z,2.18
2023-03-22T08:03:57.763Z,3.16
2023-03-22T08:04:57.691Z,2.64
2023-03-22T08:05:57.636Z,2.15
2023-03-22T08:06:57.574Z,2.59
2023-03-22T08:07:57.530Z,2.26
2023-03-22T08:08:57.484Z,2.78
2023-03-22T08:09:58.378Z,2.40
2023-03-22T08:10:57.351Z,1.96
2023-03-22T08:11:57.303Z,2.18
2023-03-22T08:12:57.226Z,2.25
2023-03-22T08:13:57.358Z,1.94
2023-03-22T08:14:57.134Z,2.28
2023-03-22T08:15:57.089Z,2.00
2023-03-22T08:16:56.986Z,1.64
2023-03-22T08:17:56.932Z,1.95
2023-03-22T08:18:56.887Z,2.00
2023-03-22T08:19:56.809Z,1.60
2023-03-22T08:20:56.929Z,1.77
2023-03-22T08:21:56.694Z,1.77
2023-03-22T08:22:56.625Z,1.77
2023-03-22T08:23:56.570Z,1.85
2023-03-22T08:24:56.512Z,1.79
2023-03-22T08:26:56.549Z,1.97
2023-03-22T08:27:56.329Z,1.88
2023-03-22T08:29:56.220Z,1.85
2023-03-22T08:30:56.202Z,1.69
2023-03-22T08:31:56.183Z,1.93
2023-03-22T08:32:56.053Z,1.35
2023-03-22T08:33:56.003Z,1.99
2023-03-22T08:34:55.964Z,1.51
2023-03-22T08:35:55.943Z,1.30
2023-03-22T08:36:55.852Z,1.57
2023-03-22T08:37:55.798Z,1.33
2023-03-22T08:38:55.750Z,1.76
2023-03-22T08:39:55.786Z,1.55
2023-03-22T08:40:55.640Z,1.33
2023-03-22T08:41:55.609Z,1.14
2023-03-22T08:42:55.563Z,1.81
2023-03-22T08:43:55.487Z,1.50
2023-03-22T08:44:55.460Z,1.49
2023-03-22T08:45:55.447Z,1.64
2023-03-22T08:46:55.344Z,1.77
2023-03-22T08:47:55.292Z,1.83
2023-03-22T08:48:55.249Z,1.56
2023-03-22T08:49:55.207Z,1.54
2023-03-22T08:50:55.164Z,1.70
2023-03-22T08:51:55.109Z,1.34
2023-03-22T08:52:55.055Z,1.54
2023-03-22T08:53:55.000Z,2.24
2023-03-22T08:54:54.980Z,1.62
2023-03-22T08:55:54.911Z,2.97
2023-03-22T08:56:54.878Z,1.40
2023-03-22T08:57:54.825Z,1.92
2023-03-22T08:58:54.782Z,1.90
2023-03-22T08:59:54.734Z,1.94
2023-03-22T09:00:54.726Z,1.58
2023-03-22T09:01:54.711Z,1.76
2023-03-22T09:02:54.610Z,2.01
2023-03-22T09:03:54.569Z,1.81
2023-03-22T09:04:54.600Z,1.69
2023-03-22T09:05:54.460Z,2.28
2023-03-22T09:06:54.424Z,1.91
2023-03-22T09:07:54.380Z,1.42
2023-03-22T09:08:54.404Z,2.12
2023-03-22T09:09:54.291Z,2.41
2023-03-22T09:10:54.249Z,1.99
2023-03-22T09:11:54.206Z,2.20
2023-03-22T09:12:54.176Z,1.79
2023-03-22T09:13:54.104Z,2.37
2023-03-22T09:14:55.834Z,1.66
2023-03-22T09:15:54.072Z,1.95
2023-03-22T09:16:54.007Z,2.32
2023-03-22T09:17:53.949Z,2.11
2023-03-22T09:18:53.930Z,1.64
2023-03-22T09:20:05.830Z,1.82
2023-03-22T09:20:54.857Z,1.78
2023-03-22T09:21:53.788Z,1.62
2023-03-22T09:22:53.767Z,1.58
2023-03-22T09:23:53.720Z,1.65
2023-03-22T09:24:53.694Z,1.15
2023-03-22T09:25:53.656Z,1.48
2023-03-22T09:26:53.605Z,1.55
2023-03-22T09:27:53.550Z,1.67
2023-03-22T09:28:53.517Z,1.68
2023-03-22T09:29:53.473Z,2.66
2023-03-22T09:30:53.483Z,2.20
2023-03-22T09:37:53.271Z,1.95
2023-03-22T09:38:53.114Z,2.32
2023-03-22T09:39:53.077Z,2.01
2023-03-22T09:40:53.044Z,2.07
2023-03-22T09:41:52.988Z,2.21
2023-03-22T09:42:52.944Z,1.91
2023-03-22T09:43:52.913Z,2.19
2023-03-22T09:44:52.834Z,2.25
2023-03-22T09:45:52.894Z,2.84
2023-03-22T09:46:52.784Z,2.27
2023-03-22T09:47:52.758Z,2.13
2023-03-22T09:48:52.662Z,2.97
2023-03-22T09:49:54.171Z,3.03
2023-03-22T09:50:52.583Z,2.73
2023-03-22T09:51:52.609Z,2.93
2023-03-22T09:52:52.528Z,3.01
2023-03-22T09:53:52.447Z,3.22
2023-03-22T09:54:53.380Z,3.85
2023-03-22T09:55:52.444Z,2.63
2023-03-22T09:56:52.325Z,2.75
2023-03-22T09:57:52.303Z,2.61
2023-03-22T09:58:52.294Z,2.08
2023-03-22T09:59:52.322Z,2.37
2023-03-22T10:00:52.359Z,2.39
2023-03-22T10:01:52.432Z,1.94
2023-03-22T10:02:52.121Z,2.61
2023-03-22T10:03:52.058Z,2.40
2023-03-22T10:04:51.977Z,2.22
2023-03-22T10:05:51.977Z,2.41
2023-03-22T10:06:51.902Z,2.31
2023-03-22T10:07:51.862Z,2.29
2023-03-22T10:08:51.808Z,2.81
2023-03-22T10:09:51.757Z,2.41
2023-03-22T10:10:51.705Z,2.59
2023-03-22T10:11:51.675Z,1.94
2023-03-22T10:12:51.618Z,1.76
2023-03-22T10:13:51.585Z,2.13
2023-03-22T10:14:51.553Z,2.07
2023-03-22T10:15:51.568Z,2.34
2023-03-22T10:16:51.440Z,2.27
2023-03-22T10:17:51.421Z,2.57
2023-03-22T10:18:51.355Z,2.22
2023-03-22T10:19:51.312Z,2.35
2023-03-22T10:20:51.320Z,2.31
2023-03-22T10:21:51.273Z,2.33
2023-03-22T10:22:53.268Z,2.39
2023-03-22T10:23:51.114Z,2.31
2023-03-22T10:24:51.079Z,2.41
2023-03-22T10:25:51.040Z,2.16
2023-03-22T10:26:51.163Z,2.04
2023-03-22T10:27:50.925Z,2.46
2023-03-22T10:28:50.866Z,2.24
2023-03-22T10:29:50.863Z,1.90
2023-03-22T10:30:50.853Z,1.86
2023-03-22T10:31:50.773Z,1.79
2023-03-22T10:32:57.630Z,1.76
2023-03-22T10:33:51.618Z,1.68
2023-03-22T10:34:50.569Z,2.21
2023-03-22T10:35:50.583Z,1.97
2023-03-22T10:36:50.488Z,2.21
2023-03-22T10:37:50.438Z,2.54
2023-03-22T10:38:50.359Z,2.47
2023-03-22T10:39:50.300Z,2.23
2023-03-22T10:40:50.254Z,1.76
2023-03-22T10:41:50.207Z,2.00
2023-03-22T10:42:50.133Z,2.74
2023-03-22T10:43:50.080Z,2.75
2023-03-22T10:44:50.119Z,2.84
2023-03-22T10:45:49.982Z,2.95
2023-03-22T10:46:49.972Z,2.27
2023-03-22T10:47:49.932Z,2.59
2023-03-22T10:48:49.808Z,1.71
2023-03-22T10:49:49.767Z,2.35
2023-03-22T10:50:49.689Z,1.56
2023-03-22T10:51:49.648Z,2.30
2023-03-22T10:52:49.558Z,2.63
2023-03-22T10:53:49.508Z,2.09
2023-03-22T10:54:49.454Z,2.19
2023-03-22T10:55:49.394Z,2.11
2023-03-22T10:56:49.346Z,2.07
2023-03-22T10:57:49.299Z,1.97
2023-03-22T10:58:49.222Z,2.05
2023-03-22T10:59:49.151Z,1.94
2023-03-22T11:00:49.244Z,2.21
2023-03-22T11:01:49.217Z,2.39
2023-03-22T11:02:49.023Z,2.28
2023-03-22T14:19:39.471Z,2.08
2023-03-22T14:20:39.694Z,2.23
2023-03-22T14:21:39.330Z,2.16
2023-03-22T14:53:20.379Z,2.20
2023-03-22T14:54:20.409Z,2.14
2023-03-22T14:55:20.313Z,1.68
2023-03-22T14:56:20.257Z,1.78
2023-03-22T14:57:28.321Z,1.47
2023-03-22T14:58:20.202Z,2.13
2023-03-22T15:02:08.117Z,1.89
2023-03-22T15:03:08.172Z,1.99
2023-03-22T15:04:07.996Z,1.86
2023-03-22T15:05:07.972Z,1.75
2023-03-22T15:10:07.783Z,2.24
2023-03-22T15:12:55.689Z,2.43
2023-03-22T15:13:55.647Z,2.01
2023-03-22T15:14:55.612Z,2.04
2023-03-22T15:18:55.444Z,1.73
2023-03-22T15:22:43.319Z,1.62
2023-03-22T15:23:43.293Z,1.88
2023-03-22T15:24:43.256Z,2.27
2023-03-22T15:25:43.210Z,1.41
2023-03-22T15:28:43.115Z,2.00
2023-03-22T15:33:30.972Z,1.80
2023-03-22T15:34:30.930Z,2.04
2023-03-22T15:35:30.913Z,1.25
2023-03-22T15:39:18.821Z,1.37
2023-03-22T15:40:18.816Z,1.83
2023-03-22T15:42:18.787Z,2.28
2023-03-22T15:43:18.779Z,1.43
2023-03-22T15:45:18.764Z,1.98
2023-03-22T15:48:06.695Z,1.90
2023-03-22T15:50:06.611Z,2.32
2023-03-22T15:51:06.565Z,1.73
2023-03-22T15:52:06.506Z,1.90
2023-03-22T15:55:06.387Z,2.01
2023-03-22T15:56:06.346Z,1.79
2023-03-22T15:59:54.209Z,1.90
2023-03-22T16:00:54.252Z,1.36
2023-03-22T16:03:54.143Z,1.88
2023-03-22T16:04:54.023Z,1.77
2023-03-22T16:05:53.974Z,1.88
2023-03-22T16:10:41.808Z,2.13
2023-03-22T16:11:41.781Z,2.10
2023-03-22T16:14:41.636Z,1.97
2023-03-22T16:15:41.997Z,1.92
2023-03-22T16:21:29.393Z,1.78
2023-03-22T16:23:29.315Z,2.05
2023-03-22T16:24:29.272Z,1.82
2023-03-22T16:25:29.228Z,1.61
2023-03-22T16:28:17.150Z,2.10
2023-03-22T16:29:17.109Z,1.75
2023-03-22T16:31:17.079Z,2.43
2023-03-22T16:32:17.041Z,1.72
2023-03-22T16:33:17.009Z,1.76
2023-03-22T16:34:16.990Z,1.34
2023-03-22T16:39:04.850Z,1.75
2023-03-22T16:43:04.638Z,1.91
2023-03-22T16:44:04.522Z,2.03
2023-03-22T16:45:04.464Z,1.60
2023-03-22T16:49:52.282Z,2.06
2023-03-22T16:52:52.125Z,1.65
2023-03-22T16:53:52.069Z,1.60
2023-03-22T16:54:52.025Z,2.06
2023-03-22T16:55:51.974Z,1.60
2023-03-22T17:00:40.038Z,1.73
2023-03-22T17:02:39.614Z,2.36
2023-03-22T17:04:39.507Z,1.30
2023-03-22T17:05:39.444Z,2.05
2023-03-22T17:06:39.381Z,1.96
2023-03-22T17:11:27.203Z,2.04
2023-03-22T17:13:27.155Z,2.19
2023-03-22T17:14:27.113Z,1.72
2023-03-22T17:15:27.082Z,1.86
2023-03-22T17:20:14.950Z,2.18
2023-03-22T17:21:14.930Z,1.61
2023-03-22T17:22:14.904Z,1.67
2023-03-22T17:23:14.863Z,1.71
2023-03-22T17:26:14.778Z,1.70
2023-03-22T17:29:02.710Z,1.65
2023-03-22T17:31:02.686Z,1.99
2023-03-22T17:32:09.612Z,1.91
2023-03-22T17:33:04.829Z,1.63
2023-03-22T17:35:02.536Z,1.40
2023-03-22T17:36:02.672Z,1.55
2023-03-22T17:37:02.480Z,1.49
2023-03-22T17:41:50.299Z,1.60
2023-03-22T17:42:50.260Z,1.64
2023-03-22T17:43:50.215Z,1.92
2023-03-22T17:47:21.300Z,1.80
2023-03-22T17:50:39.138Z,1.70
2023-03-22T17:52:38.977Z,1.74
2023-03-22T17:55:08.129Z,2.00
2023-03-22T17:56:09.687Z,1.55
2023-03-22T17:57:12.262Z,1.52
2023-03-22T17:59:27.862Z,2.02
2023-03-22T18:02:28.420Z,1.15
2023-03-22T18:03:27.694Z,1.76
2023-03-22T18:04:27.687Z,1.93
2023-03-22T18:05:33.706Z,1.87
2023-03-22T18:06:28.579Z,1.71
2023-03-22T18:10:15.478Z,1.98
2023-03-22T18:13:15.402Z,2.04
2023-03-22T18:14:24.930Z,1.53
2023-03-22T18:15:16.357Z,1.90
2023-03-22T18:16:15.338Z,1.92
2023-03-22T18:20:14.863Z,1.72
2023-03-22T18:21:04.188Z,1.73
2023-03-22T18:22:03.176Z,1.82
2023-03-22T18:25:03.067Z,2.00
2023-03-22T18:26:03.045Z,2.30
2023-03-22T18:31:50.892Z,1.53
2023-03-22T18:34:50.811Z,2.35
2023-03-22T18:35:50.849Z,1.94
2023-03-22T18:37:50.728Z,1.82
2023-03-22T18:43:38.651Z,1.87
2023-03-22T18:44:38.631Z,2.01
2023-03-22T18:47:38.593Z,1.96
2023-03-22T18:50:26.557Z,2.24
2023-03-22T18:54:26.463Z,1.88
2023-03-22T18:56:26.390Z,2.42
2023-03-22T18:57:32.334Z,1.36
2023-03-22T19:01:15.274Z,1.91
2023-03-22T19:04:15.127Z,2.12
2023-03-22T19:06:15.023Z,2.07
2023-03-22T19:07:20.202Z,1.99
2023-03-22T19:08:25.866Z,2.59
2023-03-22T19:13:03.867Z,2.47
2023-03-22T19:16:03.896Z,2.06
2023-03-22T19:17:03.827Z,1.83
2023-03-22T19:21:51.721Z,1.74
2023-03-22T19:22:51.726Z,1.52
2023-03-22T19:24:51.615Z,2.09
2023-03-22T19:25:51.612Z,1.70
2023-03-22T19:27:01.695Z,2.19
2023-03-22T19:27:52.532Z,2.46
2023-03-22T19:32:39.377Z,2.13
2023-03-22T19:35:39.379Z,1.89
2023-03-22T19:36:39.273Z,1.95
2023-03-22T19:37:39.175Z,2.39
2023-03-22T19:38:39.157Z,2.02
2023-03-22T19:42:28.025Z,1.54
2023-03-22T19:43:28.012Z,2.53
2023-03-22T19:45:26.964Z,2.14
2023-03-22T19:46:27.094Z,1.57